マレ の空港の天気 - METARとTAF

マレ国際空港 ( VRMM / MLE ) - モルディブ Hulhule Island, North Male Atoll
飛行場実況気象(Metar)
観測時間07/18 15:00 MVT (07/18 10:00 UTC)
風向・風速西 8m/s
視程10km以上
天気現象
少しの雲 雲底高度 550m
気温30℃
湿度75%
気圧1008hPa
METARVRMM 181000Z 28015KT 9999 FEW018TCU 30/25 Q1008 NOSIG
過去の天気等 Google飛行場航空写真 Wunderground天気予報

過去48時間のMETAR

飛行場予報(TAF)
発表時間: 7/18 10:00 MVT (7/18 05:00 UTC)
予報対象時間: 18日11時 MVT ~ 19日17時 MVT
風向・風速西北西 7m/s
視程10km以上
少しの雲 雲底高度 550m
18日14時 MVT ~ 18日20時 MVT に一時的に
視程5000m
天気現象弱いしゅう雨
少しの積乱雲 雲底高度 520m
TAF VRMM 180500Z 1806/1912 29014KT 9999 FEW018
TEMPO 1809/1815 5000 -SHRA FEW017CB